Time;durP1;ratioP1;P1;durP2;ratioP2;P2;SDS_P1;SDS_P2;PMS_P1;PMS_P2;Temp;Humidity;BMP_temperature;BMP_pressure;BME280_temperature;BME280_humidity;BME280_pressure;Samples;Min_cycle;Max_cycle;Signal;HPM_P1;HPM_P2
2022/10/31 00:02:21;;;;;;;11.23;8.10;;;17.30;93.10;;;;;;5037470;28;20471;-69
2022/10/31 00:04:49;;;;;;;12.03;7.73;;;17.30;93.10;;;;;;5037649;28;20962;-69
2022/10/31 00:07:16;;;;;;;10.20;8.47;;;17.20;93.10;;;;;;5037785;28;20455;-69
2022/10/31 00:09:43;;;;;;;13.30;8.20;;;17.20;93.10;;;;;;5037826;28;20450;-69
2022/10/31 00:12:10;;;;;;;13.33;9.50;;;17.20;93.20;;;;;;5037204;28;20529;-69
2022/10/31 00:14:36;;;;;;;13.30;7.97;;;17.20;93.20;;;;;;5037656;28;20446;-69
2022/10/31 00:17:03;;;;;;;18.73;9.13;;;17.10;93.20;;;;;;5037908;28;20427;-69
2022/10/31 00:19:30;;;;;;;12.20;7.87;;;17.10;93.30;;;;;;5038027;28;20945;-69
2022/10/31 00:21:58;;;;;;;19.50;9.60;;;17.10;93.30;;;;;;5037307;28;20464;-69
2022/10/31 00:24:25;;;;;;;14.80;9.70;;;17.10;93.30;;;;;;5036950;28;20447;-70
2022/10/31 00:26:51;;;;;;;13.60;9.50;;;17.00;93.30;;;;;;5036865;28;20446;-69
2022/10/31 00:29:18;;;;;;;13.77;9.73;;;17.00;93.30;;;;;;5036706;28;20455;-69
2022/10/31 00:31:45;;;;;;;11.20;9.37;;;17.00;93.40;;;;;;5036651;28;20509;-69
2022/10/31 00:34:12;;;;;;;11.30;8.00;;;17.00;93.60;;;;;;5036729;28;20470;-69
2022/10/31 00:36:38;;;;;;;14.40;10.07;;;17.00;93.60;;;;;;5037615;28;20434;-69
2022/10/31 00:39:06;;;;;;;14.27;8.63;;;17.00;93.70;;;;;;5037275;28;20458;-69
2022/10/31 00:41:33;;;;;;;14.97;9.67;;;17.00;93.80;;;;;;5037645;28;20434;-69
2022/10/31 00:44:00;;;;;;;17.13;9.00;;;17.00;94.00;;;;;;5037251;28;20447;-69
2022/10/31 00:46:26;;;;;;;13.27;9.97;;;17.00;94.10;;;;;;5036959;28;20455;-69
2022/10/31 00:48:53;;;;;;;11.37;9.30;;;17.00;94.10;;;;;;5037106;28;20427;-69
2022/10/31 00:51:20;;;;;;;14.60;9.13;;;17.10;94.20;;;;;;5036645;28;20489;-69
2022/10/31 00:53:47;;;;;;;15.57;11.60;;;17.10;94.20;;;;;;5036027;28;20465;-69
2022/10/31 00:56:15;;;;;;;16.73;9.70;;;17.10;94.10;;;;;;5036850;28;20439;-69
2022/10/31 00:58:41;;;;;;;19.60;11.00;;;17.10;94.10;;;;;;5019742;28;20479;-69
2022/10/31 01:01:08;;;;;;;15.70;9.87;;;17.10;94.10;;;;;;5030395;28;20462;-69
2022/10/31 01:03:35;;;;;;;17.57;9.97;;;17.10;94.10;;;;;;5032428;28;20460;-69
2022/10/31 01:06:04;;;;;;;12.70;9.70;;;17.10;94.20;;;;;;5036023;28;20438;-69
2022/10/31 01:08:31;;;;;;;11.60;8.03;;;17.10;94.20;;;;;;5035642;28;20444;-71
2022/10/31 01:11:02;;;;;;;13.23;8.70;;;17.10;94.10;;;;;;5036311;28;20480;-69
2022/10/31 01:13:30;;;;;;;14.40;9.10;;;17.00;94.10;;;;;;5035564;28;20464;-69
2022/10/31 01:15:58;;;;;;;18.23;8.40;;;17.10;94.30;;;;;;5036214;28;20447;-69
2022/10/31 01:18:25;;;;;;;14.23;8.63;;;17.10;94.40;;;;;;5035049;28;20455;-69
2022/10/31 01:21:02;;;;;;;13.67;9.00;;;17.10;94.80;;;;;;5035656;28;20424;-69
2022/10/31 01:23:29;;;;;;;13.77;8.87;;;17.10;94.50;;;;;;5035651;28;20471;-71
2022/10/31 01:26:08;;;;;;;11.30;8.57;;;17.10;94.60;;;;;;5035399;28;20464;-69
2022/10/31 01:28:38;;;;;;;17.90;9.63;;;17.10;94.60;;;;;;5035783;28;20446;-69
2022/10/31 01:31:06;;;;;;;17.50;10.07;;;17.10;94.60;;;;;;5035671;28;20498;-69
2022/10/31 01:33:33;;;;;;;14.50;9.97;;;17.10;94.70;;;;;;5035083;28;20582;-69
2022/10/31 01:36:00;;;;;;;13.67;10.20;;;17.10;94.70;;;;;;5036013;28;20448;-69
2022/10/31 01:38:27;;;;;;;19.07;9.37;;;17.00;94.70;;;;;;5035882;28;20443;-69
2022/10/31 01:40:54;;;;;;;11.60;9.00;;;17.10;94.70;;;;;;5035516;28;20459;-69
2022/10/31 01:43:20;;;;;;;20.30;9.47;;;17.00;94.60;;;;;;5035533;28;20460;-69
2022/10/31 01:45:54;;;;;;;11.53;9.33;;;17.00;94.50;;;;;;5035908;28;20436;-70
2022/10/31 01:48:26;;;;;;;11.33;9.23;;;17.00;94.50;;;;;;5035914;28;20436;-69
2022/10/31 01:50:55;;;;;;;12.50;9.67;;;17.00;94.40;;;;;;5035839;28;20454;-69
2022/10/31 01:53:23;;;;;;;12.30;8.90;;;16.90;94.30;;;;;;5035499;28;20513;-69
2022/10/31 01:55:50;;;;;;;13.50;8.17;;;16.90;94.20;;;;;;5035258;28;20451;-69
2022/10/31 01:58:20;;;;;;;12.83;8.63;;;16.90;94.10;;;;;;5035704;28;20448;-69
2022/10/31 02:00:50;;;;;;;17.83;9.37;;;16.90;94.00;;;;;;5034596;28;20436;-69
2022/10/31 02:03:18;;;;;;;20.63;10.40;;;16.80;94.00;;;;;;5035463;28;20467;-69
2022/10/31 02:05:45;;;;;;;15.97;9.43;;;16.80;94.00;;;;;;5035401;28;20455;-69
2022/10/31 02:08:19;;;;;;;13.33;9.60;;;16.70;93.90;;;;;;5035154;28;20454;-69
2022/10/31 02:10:46;;;;;;;14.53;9.47;;;16.70;93.80;;;;;;5035230;28;20414;-69
2022/10/31 02:13:14;;;;;;;10.33;9.27;;;16.60;93.70;;;;;;5035420;28;20471;-69
2022/10/31 02:15:43;;;;;;;13.63;9.30;;;16.60;93.60;;;;;;5035537;28;20453;-69
2022/10/31 02:18:11;;;;;;;9.83;8.43;;;16.60;93.60;;;;;;5035753;28;20447;-69
2022/10/31 02:20:48;;;;;;;12.43;8.87;;;16.50;93.60;;;;;;5035278;28;20447;-69
2022/10/31 02:23:40;;;;;;;11.30;8.80;;;16.50;93.60;;;;;;5035147;28;20464;-69
2022/10/31 02:26:37;;;;;;;13.50;9.00;;;16.50;93.70;;;;;;5035123;28;20444;-69
2022/10/31 02:29:34;;;;;;;14.10;8.93;;;16.40;93.70;;;;;;5035338;28;20436;-69
2022/10/31 02:32:07;;;;;;;13.00;9.53;;;16.40;93.70;;;;;;5010649;28;20502;-68
2022/10/31 02:34:40;;;;;;;12.37;9.13;;;16.40;93.90;;;;;;5035017;28;20462;-69
2022/10/31 02:37:13;;;;;;;15.40;9.27;;;16.40;94.00;;;;;;5035252;28;20428;-71
2022/10/31 02:39:51;;;;;;;12.80;9.70;;;16.40;94.20;;;;;;5035254;28;20427;-70
2022/10/31 02:42:23;;;;;;;12.77;9.67;;;16.30;94.10;;;;;;5035353;28;20466;-69
2022/10/31 02:44:56;;;;;;;15.03;9.43;;;16.30;94.20;;;;;;5035885;28;20446;-69
2022/10/31 02:47:28;;;;;;;18.43;9.77;;;16.30;94.20;;;;;;5035600;28;20447;-69
2022/10/31 02:49:58;;;;;;;12.93;9.33;;;16.30;94.20;;;;;;5035394;28;20432;-69
2022/10/31 02:52:27;;;;;;;13.87;8.67;;;16.30;94.20;;;;;;5035071;28;20492;-69
2022/10/31 02:54:54;;;;;;;17.60;10.17;;;16.30;94.30;;;;;;5035207;28;20427;-69
2022/10/31 02:57:25;;;;;;;15.17;8.87;;;16.20;94.30;;;;;;5035089;28;20459;-69
2022/10/31 02:59:57;;;;;;;10.37;9.23;;;16.30;94.40;;;;;;5035041;28;20424;-69
2022/10/31 03:02:55;;;;;;;17.50;9.40;;;16.20;94.40;;;;;;5034532;28;20467;-69
2022/10/31 03:05:35;;;;;;;11.83;9.50;;;16.20;94.30;;;;;;5035350;28;20435;-69
2022/10/31 03:08:09;;;;;;;11.77;8.37;;;16.10;94.20;;;;;;5035285;28;20438;-69
2022/10/31 03:10:43;;;;;;;11.60;8.90;;;16.20;94.20;;;;;;5035468;28;20421;-69
2022/10/31 03:13:13;;;;;;;12.00;9.13;;;16.10;94.10;;;;;;5037177;28;20497;-69
2022/10/31 03:15:44;;;;;;;13.20;9.53;;;16.10;94.10;;;;;;5039272;28;20446;-69
2022/10/31 03:18:17;;;;;;;13.47;8.60;;;16.10;94.10;;;;;;5039542;28;20424;-69
2022/10/31 03:20:47;;;;;;;9.80;8.77;;;16.10;94.00;;;;;;5039329;28;20822;-69
2022/10/31 03:23:18;;;;;;;13.33;9.50;;;16.00;93.80;;;;;;5038466;28;20456;-69
2022/10/31 03:25:47;;;;;;;14.90;7.80;;;16.10;93.90;;;;;;5038800;28;20435;-69
2022/10/31 03:28:18;;;;;;;13.20;9.40;;;16.00;93.80;;;;;;5038552;28;20442;-69
2022/10/31 03:30:47;;;;;;;12.93;7.77;;;16.00;93.80;;;;;;5038755;28;20431;-69
2022/10/31 03:33:20;;;;;;;16.23;8.60;;;16.00;93.80;;;;;;5038037;28;20495;-69
2022/10/31 03:35:51;;;;;;;16.10;10.10;;;15.90;93.80;;;;;;5038600;28;20419;-69
2022/10/31 03:38:20;;;;;;;14.87;9.60;;;15.90;93.80;;;;;;5038835;28;20440;-69
2022/10/31 03:40:50;;;;;;;12.30;8.60;;;15.90;93.80;;;;;;5037994;28;20458;-69
2022/10/31 03:43:25;;;;;;;12.87;9.00;;;15.90;93.80;;;;;;5038638;28;20490;-69
2022/10/31 03:45:53;;;;;;;14.83;9.67;;;15.90;93.70;;;;;;5038456;28;20436;-69
2022/10/31 03:48:22;;;;;;;12.83;8.40;;;15.80;93.70;;;;;;5038071;28;20442;-69
2022/10/31 03:50:58;;;;;;;11.77;9.27;;;15.80;93.80;;;;;;5038169;28;20448;-69
2022/10/31 03:53:31;;;;;;;11.80;9.47;;;15.80;93.90;;;;;;5038092;28;20478;-69
2022/10/31 03:56:02;;;;;;;15.27;8.27;;;15.80;93.80;;;;;;5038413;28;20438;-69
2022/10/31 03:58:37;;;;;;;14.97;9.67;;;15.80;93.70;;;;;;5037992;28;20427;-68
2022/10/31 04:01:06;;;;;;;14.67;9.03;;;15.80;93.60;;;;;;5037749;28;20432;-69
2022/10/31 04:03:37;;;;;;;13.13;8.53;;;15.70;93.50;;;;;;5037240;28;20463;-69
2022/10/31 04:06:07;;;;;;;16.87;9.10;;;15.70;93.50;;;;;;5037617;28;20438;-70
2022/10/31 04:08:37;;;;;;;16.47;8.43;;;15.70;93.60;;;;;;5037370;28;20435;-70
2022/10/31 04:11:06;;;;;;;15.83;9.00;;;15.60;93.60;;;;;;5033893;28;20454;-70
2022/10/31 04:13:35;;;;;;;11.63;8.17;;;15.60;93.70;;;;;;5031616;28;20494;-69
2022/10/31 04:16:02;;;;;;;10.20;8.43;;;15.60;93.60;;;;;;5035532;28;20448;-69
2022/10/31 04:18:29;;;;;;;13.77;8.90;;;15.60;93.50;;;;;;5035596;28;20453;-69
2022/10/31 04:21:03;;;;;;;12.97;9.20;;;15.60;93.50;;;;;;5035900;28;20452;-69
2022/10/31 04:23:30;;;;;;;15.80;8.67;;;15.50;93.30;;;;;;5035499;28;20471;-69
2022/10/31 04:25:57;;;;;;;9.80;7.47;;;15.50;93.30;;;;;;5035219;28;20453;-69
2022/10/31 04:28:24;;;;;;;8.50;7.47;;;15.40;93.20;;;;;;5036582;28;20451;-68
2022/10/31 04:30:53;;;;;;;8.40;7.60;;;15.40;93.20;;;;;;5036321;28;20453;-69
2022/10/31 04:33:20;;;;;;;11.53;8.67;;;15.40;93.20;;;;;;5036363;28;20495;-68
2022/10/31 04:35:47;;;;;;;11.30;8.37;;;15.40;93.30;;;;;;5036268;28;20451;-68
2022/10/31 04:38:15;;;;;;;14.20;8.27;;;15.40;93.30;;;;;;5036284;28;20440;-69
2022/10/31 04:40:42;;;;;;;12.00;7.97;;;15.40;93.40;;;;;;5035247;28;20455;-68
2022/10/31 04:43:08;;;;;;;9.30;7.33;;;15.30;93.40;;;;;;5035448;28;20462;-69
2022/10/31 04:45:35;;;;;;;10.13;7.63;;;15.30;93.30;;;;;;5035414;28;20451;-69
2022/10/31 04:48:02;;;;;;;13.20;8.40;;;15.30;93.30;;;;;;5035700;28;20449;-68
2022/10/31 04:50:29;;;;;;;11.53;8.40;;;15.30;93.40;;;;;;5035289;28;20455;-68
2022/10/31 04:52:56;;;;;;;10.13;7.80;;;15.30;93.50;;;;;;5034813;28;20515;-68
2022/10/31 04:55:24;;;;;;;11.27;8.27;;;15.30;93.60;;;;;;5035332;28;20427;-69
2022/10/31 04:57:52;;;;;;;12.33;8.57;;;15.30;93.60;;;;;;5034684;28;20911;-68
2022/10/31 05:00:21;;;;;;;10.60;8.80;;;15.30;93.70;;;;;;5035663;28;20458;-68
2022/10/31 05:02:48;;;;;;;9.40;7.90;;;15.20;93.70;;;;;;5035512;28;20464;-69
2022/10/31 05:05:15;;;;;;;13.83;8.57;;;15.20;93.80;;;;;;5018187;28;20458;-69
2022/10/31 05:07:43;;;;;;;10.60;7.50;;;15.20;93.80;;;;;;5034101;28;20473;-68
2022/10/31 05:10:12;;;;;;;10.93;7.97;;;15.20;93.80;;;;;;5034645;28;20446;-68
2022/10/31 05:12:46;;;;;;;15.07;8.03;;;15.20;93.90;;;;;;5034211;28;20495;-68
2022/10/31 05:15:13;;;;;;;10.80;8.93;;;15.20;94.10;;;;;;5035299;28;20467;-68
2022/10/31 05:17:40;;;;;;;13.73;8.53;;;15.20;94.10;;;;;;5035462;28;20454;-69
2022/10/31 05:20:07;;;;;;;13.13;8.60;;;15.20;94.10;;;;;;5035052;28;20454;-68
2022/10/31 05:22:34;;;;;;;21.03;10.00;;;15.10;94.10;;;;;;5034745;28;20470;-68
2022/10/31 05:25:01;;;;;;;13.90;8.77;;;15.10;94.20;;;;;;5033997;28;20455;-68
2022/10/31 05:27:27;;;;;;;19.97;9.90;;;15.10;94.30;;;;;;5035168;28;20475;-69
2022/10/31 05:29:55;;;;;;;16.97;8.87;;;15.20;94.30;;;;;;5035463;28;20455;-68
2022/10/31 05:32:22;;;;;;;16.60;8.60;;;15.10;94.20;;;;;;5034183;28;20501;-69
2022/10/31 05:34:49;;;;;;;12.63;8.63;;;15.10;94.20;;;;;;5034099;28;20439;-69
2022/10/31 05:37:15;;;;;;;11.40;9.00;;;15.10;94.30;;;;;;5032761;28;20435;-69
2022/10/31 05:39:42;;;;;;;13.43;8.00;;;15.10;94.30;;;;;;5033968;28;20449;-69
2022/10/31 05:42:09;;;;;;;19.37;9.17;;;15.10;94.30;;;;;;5033819;28;20481;-68
2022/10/31 05:44:36;;;;;;;15.50;9.60;;;15.00;94.30;;;;;;5033518;28;20955;-68
2022/10/31 05:47:04;;;;;;;10.47;7.23;;;15.00;94.40;;;;;;5033835;28;20442;-70
2022/10/31 05:49:30;;;;;;;12.37;8.33;;;15.10;94.50;;;;;;5034293;28;20442;-70
2022/10/31 05:51:57;;;;;;;12.60;9.70;;;15.00;94.40;;;;;;5033612;28;20467;-68
2022/10/31 05:54:24;;;;;;;16.23;9.33;;;15.00;94.40;;;;;;5032874;28;20458;-68
2022/10/31 05:56:51;;;;;;;10.07;8.60;;;15.00;94.40;;;;;;5033298;28;20454;-69
2022/10/31 05:59:18;;;;;;;11.00;8.80;;;15.00;94.50;;;;;;5033498;28;20511;-69
2022/10/31 06:01:44;;;;;;;17.77;8.40;;;15.00;94.50;;;;;;5034231;28;20483;-68
2022/10/31 06:04:12;;;;;;;10.73;8.40;;;15.00;94.40;;;;;;5034449;28;20446;-68
2022/10/31 06:06:39;;;;;;;13.93;8.80;;;15.00;94.50;;;;;;5033667;28;20450;-69
2022/10/31 06:09:06;;;;;;;14.00;9.50;;;15.00;94.60;;;;;;5034309;28;20452;-69
2022/10/31 06:11:32;;;;;;;15.30;9.07;;;15.00;94.70;;;;;;5034083;28;20451;-68
2022/10/31 06:13:59;;;;;;;12.60;9.00;;;15.00;94.80;;;;;;5033483;28;20491;-68
2022/10/31 06:16:26;;;;;;;16.37;9.67;;;15.00;94.90;;;;;;5034099;28;20431;-68
2022/10/31 06:18:53;;;;;;;19.80;10.17;;;15.00;94.90;;;;;;5033620;28;20452;-68
2022/10/31 06:21:21;;;;;;;16.00;10.27;;;15.00;95.00;;;;;;5032638;28;20454;-68
2022/10/31 06:23:48;;;;;;;19.40;10.40;;;15.00;95.10;;;;;;5034268;28;20466;-68
2022/10/31 06:26:14;;;;;;;17.13;10.43;;;14.90;95.20;;;;;;5033142;28;20447;-68
2022/10/31 06:28:41;;;;;;;13.47;9.60;;;15.00;95.30;;;;;;5033052;28;20454;-68
2022/10/31 06:31:08;;;;;;;15.50;10.80;;;15.00;95.30;;;;;;5032797;28;20462;-68
2022/10/31 06:33:35;;;;;;;14.30;9.60;;;15.00;95.30;;;;;;5032285;28;20498;-68
2022/10/31 06:36:03;;;;;;;15.23;9.33;;;15.00;95.40;;;;;;5032773;28;20477;-68
2022/10/31 06:38:31;;;;;;;16.13;9.83;;;14.90;95.40;;;;;;5032284;28;20455;-68
2022/10/31 06:40:57;;;;;;;11.23;10.03;;;14.90;95.60;;;;;;5032475;28;20454;-68
2022/10/31 06:43:24;;;;;;;13.70;10.40;;;14.90;95.60;;;;;;5033612;28;20480;-68
2022/10/31 06:45:51;;;;;;;14.77;11.00;;;14.90;95.60;;;;;;5033285;28;20457;-70
2022/10/31 06:48:18;;;;;;;10.20;8.83;;;15.00;95.60;;;;;;5033257;28;20482;-70
2022/10/31 06:50:44;;;;;;;13.77;9.77;;;15.00;95.60;;;;;;5032922;28;20454;-68
2022/10/31 06:53:12;;;;;;;13.93;10.07;;;15.00;95.50;;;;;;5033103;28;20489;-68
2022/10/31 06:55:41;;;;;;;12.70;10.00;;;15.00;95.40;;;;;;5033736;28;20530;-69
2022/10/31 06:58:10;;;;;;;13.87;9.47;;;15.00;95.40;;;;;;5033704;28;20456;-68
2022/10/31 07:00:37;;;;;;;11.60;9.40;;;15.00;95.40;;;;;;5033393;28;20447;-70
2022/10/31 07:03:06;;;;;;;12.27;9.43;;;15.00;95.40;;;;;;5033512;28;20470;-68
2022/10/31 07:05:33;;;;;;;12.90;8.73;;;15.00;95.40;;;;;;5033464;28;20443;-70
2022/10/31 07:08:04;;;;;;;12.97;8.93;;;15.00;95.30;;;;;;5033852;28;20463;-69
2022/10/31 07:10:33;;;;;;;15.47;9.90;;;15.00;95.30;;;;;;5033426;28;20463;-69
2022/10/31 07:13:02;;;;;;;9.53;8.13;;;15.00;95.30;;;;;;5032037;28;20498;-68
2022/10/31 07:15:31;;;;;;;16.80;9.27;;;15.00;95.30;;;;;;5033586;28;20525;-69
2022/10/31 07:18:01;;;;;;;15.20;9.10;;;15.00;95.30;;;;;;5032780;28;20446;-68
2022/10/31 07:20:27;;;;;;;11.43;9.03;;;15.10;95.50;;;;;;5032682;28;20443;-68
2022/10/31 07:22:54;;;;;;;14.67;9.63;;;15.10;95.50;;;;;;5035507;28;20467;-68
2022/10/31 07:25:21;;;;;;;15.57;8.93;;;15.10;95.60;;;;;;5033013;28;20450;-68
2022/10/31 07:27:48;;;;;;;18.23;10.60;;;15.10;95.70;;;;;;5034974;28;20477;-68
2022/10/31 07:30:17;;;;;;;12.53;8.90;;;15.10;95.80;;;;;;5036479;28;20454;-68
2022/10/31 07:32:45;;;;;;;13.00;10.30;;;15.20;95.80;;;;;;5034870;28;20496;-68
2022/10/31 07:35:14;;;;;;;15.37;10.43;;;15.20;96.10;;;;;;5034697;28;20459;-68
2022/10/31 07:37:41;;;;;;;14.40;10.27;;;15.20;95.70;;;;;;5035141;28;20456;-68
2022/10/31 07:40:09;;;;;;;12.47;8.90;;;15.20;95.70;;;;;;5035083;28;20436;-68
2022/10/31 07:42:37;;;;;;;10.97;9.50;;;15.30;95.70;;;;;;5035087;28;20481;-68
2022/10/31 07:45:04;;;;;;;17.87;9.30;;;15.30;95.70;;;;;;5034464;28;20439;-69
2022/10/31 07:47:39;;;;;;;14.30;9.30;;;15.30;95.70;;;;;;5034279;28;20452;-69
2022/10/31 07:50:07;;;;;;;14.30;9.10;;;15.30;95.80;;;;;;5033977;28;20462;-68
2022/10/31 07:52:33;;;;;;;18.20;9.17;;;15.40;95.90;;;;;;5033678;28;20474;-68
2022/10/31 07:55:00;;;;;;;16.53;10.07;;;15.50;95.90;;;;;;5033697;28;20443;-68
2022/10/31 07:57:27;;;;;;;17.60;9.83;;;15.50;95.90;;;;;;5033307;28;20446;-68
2022/10/31 07:59:54;;;;;;;17.93;9.60;;;15.60;95.80;;;;;;5034426;28;20447;-68
2022/10/31 08:02:20;;;;;;;15.77;9.20;;;15.60;95.80;;;;;;5035415;28;20467;-68
2022/10/31 08:04:49;;;;;;;12.53;9.00;;;15.70;95.70;;;;;;5035437;28;20459;-68
2022/10/31 08:07:18;;;;;;;16.13;8.70;;;15.80;95.70;;;;;;5035071;28;20992;-68
2022/10/31 08:09:45;;;;;;;13.50;9.60;;;15.80;95.60;;;;;;5035495;28;20450;-67
2022/10/31 08:12:11;;;;;;;18.70;10.40;;;15.90;95.60;;;;;;5034897;28;20460;-68
2022/10/31 08:14:38;;;;;;;11.40;8.47;;;16.00;95.60;;;;;;5035575;28;20483;-68
2022/10/31 08:17:05;;;;;;;14.73;9.13;;;16.00;95.50;;;;;;5035717;28;20433;-69
2022/10/31 08:19:32;;;;;;;17.13;10.80;;;16.10;95.40;;;;;;5036562;28;20466;-69
2022/10/31 08:22:00;;;;;;;16.40;9.90;;;16.20;95.30;;;;;;5036199;28;20554;-69
2022/10/31 08:24:27;;;;;;;13.40;10.50;;;16.20;95.20;;;;;;5035629;28;20448;-68
2022/10/31 08:26:53;;;;;;;14.50;9.33;;;16.30;95.10;;;;;;5035101;28;20448;-68
2022/10/31 08:29:20;;;;;;;10.33;9.23;;;16.30;94.90;;;;;;5035517;28;20450;-68
2022/10/31 08:31:47;;;;;;;14.67;10.07;;;16.40;94.80;;;;;;5035986;28;20456;-68
2022/10/31 08:34:13;;;;;;;15.40;9.57;;;16.50;94.70;;;;;;5034280;28;20483;-68
2022/10/31 08:36:40;;;;;;;12.10;8.87;;;16.50;94.60;;;;;;5034290;28;20482;-68
2022/10/31 08:39:08;;;;;;;18.57;9.93;;;16.60;94.40;;;;;;5034311;28;20463;-68
2022/10/31 08:41:35;;;;;;;9.37;8.20;;;16.60;94.40;;;;;;5036416;28;20473;-67
2022/10/31 08:44:01;;;;;;;11.80;8.77;;;16.60;94.30;;;;;;5036410;28;20440;-68
2022/10/31 08:46:28;;;;;;;17.53;9.07;;;16.70;94.20;;;;;;5036600;28;20458;-69
2022/10/31 08:48:55;;;;;;;14.80;9.10;;;16.70;94.10;;;;;;5036307;28;20433;-68
2022/10/31 08:51:22;;;;;;;15.40;10.17;;;16.80;94.10;;;;;;5036400;28;20448;-68
2022/10/31 08:53:49;;;;;;;16.70;11.00;;;16.80;93.90;;;;;;5035737;28;20510;-69
2022/10/31 08:56:17;;;;;;;13.03;9.20;;;16.80;93.80;;;;;;5035751;28;20455;-68
2022/10/31 08:58:43;;;;;;;10.90;8.50;;;16.90;93.70;;;;;;5036449;28;20439;-68
2022/10/31 09:01:10;;;;;;;12.63;9.50;;;17.00;93.60;;;;;;5035980;28;20447;-68
2022/10/31 09:03:38;;;;;;;11.90;9.30;;;17.00;93.50;;;;;;5035233;28;20451;-68
2022/10/31 09:06:08;;;;;;;15.27;9.50;;;17.10;93.40;;;;;;5036437;28;20450;-68
2022/10/31 09:08:36;;;;;;;17.90;9.67;;;17.20;93.30;;;;;;5035771;28;20450;-68
2022/10/31 09:11:04;;;;;;;11.63;9.30;;;17.20;93.20;;;;;;5035394;28;20444;-68
2022/10/31 09:13:32;;;;;;;14.80;10.33;;;17.30;93.10;;;;;;5034792;28;20498;-68
2022/10/31 09:15:59;;;;;;;18.93;9.77;;;17.40;93.10;;;;;;5034594;28;20455;-69
2022/10/31 09:18:27;;;;;;;11.50;10.10;;;17.50;93.10;;;;;;5036211;28;20459;-69
2022/10/31 09:20:54;;;;;;;12.97;8.67;;;17.60;93.00;;;;;;5035670;28;20451;-68
2022/10/31 09:23:23;;;;;;;16.17;9.43;;;17.70;92.90;;;;;;5035957;28;20464;-69
2022/10/31 09:25:51;;;;;;;13.07;8.00;;;17.80;92.80;;;;;;5036558;28;20452;-69
2022/10/31 09:28:20;;;;;;;16.27;9.43;;;18.00;92.50;;;;;;5034367;28;20455;-69
2022/10/31 09:30:49;;;;;;;11.17;8.23;;;18.20;92.10;;;;;;5035481;28;20444;-69
2022/10/31 09:33:17;;;;;;;10.83;7.90;;;18.40;91.80;;;;;;5035790;28;20483;-69
2022/10/31 09:35:44;;;;;;;10.37;8.17;;;18.50;91.40;;;;;;5036330;28;20458;-69
2022/10/31 09:38:14;;;;;;;9.77;8.23;;;18.50;91.00;;;;;;5036101;28;20439;-69
2022/10/31 09:40:44;;;;;;;10.53;9.00;;;18.60;90.80;;;;;;5035844;28;20483;-68
2022/10/31 09:43:18;;;;;;;12.63;8.97;;;18.70;90.60;;;;;;5035336;28;20486;-69
2022/10/31 09:45:56;;;;;;;12.53;8.53;;;18.70;90.50;;;;;;5035653;28;20443;-70
2022/10/31 09:48:36;;;;;;;8.93;8.00;;;18.70;90.40;;;;;;5035008;28;20447;-70
2022/10/31 09:51:06;;;;;;;14.67;9.47;;;18.70;90.20;;;;;;5035513;28;20428;-70
2022/10/31 09:53:40;;;;;;;11.00;8.17;;;18.80;90.10;;;;;;5035584;28;20474;-70
2022/10/31 09:56:10;;;;;;;8.97;7.63;;;18.80;90.00;;;;;;5035478;28;20424;-69
2022/10/31 09:58:44;;;;;;;11.43;9.50;;;19.00;89.60;;;;;;5035082;28;20436;-69
2022/10/31 10:01:24;;;;;;;15.33;9.00;;;19.10;89.30;;;;;;5035507;28;20418;-69
2022/10/31 10:03:55;;;;;;;13.63;8.57;;;19.20;88.90;;;;;;5035406;28;20464;-69
2022/10/31 10:06:25;;;;;;;11.50;8.57;;;19.30;88.40;;;;;;5035854;28;20436;-69
2022/10/31 10:08:51;;;;;;;12.23;7.53;;;19.30;87.00;;;;;;5035692;28;20450;-69
2022/10/31 10:11:31;;;;;;;11.00;7.70;;;19.40;86.60;;;;;;5035814;28;20454;-69
2022/10/31 10:14:28;;;;;;;13.27;7.80;;;19.40;86.50;;;;;;5035341;28;20475;-69
2022/10/31 10:17:10;;;;;;;13.73;9.37;;;19.40;86.30;;;;;;5034341;28;20461;-69
2022/10/31 10:19:54;;;;;;;12.53;9.30;;;19.50;86.30;;;;;;5035112;28;20447;-69
2022/10/31 10:22:28;;;;;;;13.90;8.73;;;19.50;86.00;;;;;;5034347;28;20471;-69
2022/10/31 10:25:05;;;;;;;11.23;8.63;;;19.50;85.80;;;;;;5035157;28;20404;-70
2022/10/31 10:27:43;;;;;;;11.03;9.17;;;19.60;85.60;;;;;;5035796;28;20443;-69
2022/10/31 10:30:15;;;;;;;14.20;7.90;;;19.60;85.30;;;;;;5034765;28;20454;-69
2022/10/31 10:32:46;;;;;;;11.70;7.90;;;19.70;85.00;;;;;;5034591;28;20479;-69
2022/10/31 10:35:24;;;;;;;10.53;7.87;;;19.70;84.70;;;;;;5034739;28;20474;-69
2022/10/31 10:37:56;;;;;;;14.30;8.37;;;19.70;84.60;;;;;;5034863;28;20440;-69
2022/10/31 10:40:25;;;;;;;11.10;8.17;;;19.80;84.70;;;;;;5034945;28;20442;-69
2022/10/31 10:48:44;;;;;;;10.13;8.40;;;19.90;84.70;;;;;;5033926;28;20395;-70
2022/10/31 10:51:23;;;;;;;14.70;7.93;;;20.00;84.00;;;;;;5034739;28;20478;-70
2022/10/31 10:54:04;;;;;;;13.13;8.10;;;20.10;83.40;;;;;;5034341;28;20483;-70
2022/10/31 10:56:43;;;;;;;13.57;7.90;;;20.20;83.10;;;;;;5034850;28;20443;-70
2022/10/31 10:59:14;;;;;;;12.83;8.43;;;20.30;82.60;;;;;;5035062;28;20462;-69
2022/10/31 11:01:42;;;;;;;14.03;8.20;;;20.40;82.30;;;;;;5034226;28;20452;-71
2022/10/31 11:04:32;;;;;;;15.40;9.20;;;20.50;81.90;;;;;;5034455;28;20450;-70
2022/10/31 11:07:01;;;;;;;18.37;9.00;;;20.60;81.50;;;;;;5034562;28;20432;-71
2022/10/31 11:09:28;;;;;;;11.13;8.60;;;20.60;81.00;;;;;;5034653;28;20431;-71
2022/10/31 11:11:56;;;;;;;12.13;8.10;;;20.70;80.70;;;;;;5034402;28;20491;-70
2022/10/31 11:14:24;;;;;;;11.70;8.10;;;20.70;80.10;;;;;;5033956;28;20483;-71
2022/10/31 11:16:54;;;;;;;14.43;8.83;;;20.70;79.80;;;;;;5033135;28;20454;-71
2022/10/31 11:19:26;;;;;;;17.53;7.90;;;20.70;79.50;;;;;;5034307;28;20440;-69
2022/10/31 11:21:53;;;;;;;10.23;7.83;;;20.80;79.30;;;;;;5033850;28;20501;-70
2022/10/31 11:24:21;;;;;;;13.20;8.27;;;20.80;79.30;;;;;;5034676;28;20468;-70
2022/10/31 11:26:50;;;;;;;11.40;7.77;;;20.90;79.20;;;;;;5034483;28;20447;-70
2022/10/31 11:29:21;;;;;;;11.30;8.50;;;21.00;79.10;;;;;;5035269;28;20455;-70
2022/10/31 11:31:50;;;;;;;11.30;7.27;;;21.10;78.60;;;;;;5034196;28;20452;-70
2022/10/31 11:34:29;;;;;;;14.03;7.50;;;21.20;77.30;;;;;;5035896;28;20490;-70
2022/10/31 11:36:58;;;;;;;11.73;7.17;;;21.30;77.20;;;;;;5037527;28;20435;-71
2022/10/31 11:39:25;;;;;;;12.53;7.67;;;21.40;77.10;;;;;;5037855;28;20437;-71
2022/10/31 11:41:55;;;;;;;11.67;7.50;;;21.60;76.40;;;;;;5038125;28;20467;-70
2022/10/31 11:44:25;;;;;;;13.13;7.70;;;21.70;75.50;;;;;;5038177;28;20440;-71
2022/10/31 11:46:55;;;;;;;9.53;6.77;;;21.90;75.10;;;;;;5038315;28;20431;-70
2022/10/31 11:49:29;;;;;;;12.50;7.37;;;22.00;75.10;;;;;;5037612;28;20424;-71
2022/10/31 11:51:58;;;;;;;11.00;6.93;;;22.10;73.50;;;;;;5038123;28;20840;-70
2022/10/31 11:54:28;;;;;;;8.80;5.80;;;22.10;72.90;;;;;;5038119;28;20479;-70
2022/10/31 11:56:56;;;;;;;8.23;6.17;;;22.10;72.30;;;;;;5038268;28;20420;-71
2022/10/31 11:59:27;;;;;;;9.53;6.90;;;22.20;71.70;;;;;;5038132;28;20424;-71
2022/10/31 12:01:55;;;;;;;15.87;6.17;;;22.20;71.70;;;;;;5037754;28;20463;-70
2022/10/31 12:04:39;;;;;;;13.50;7.50;;;22.40;71.50;;;;;;5037964;28;20492;-71
2022/10/31 12:07:06;;;;;;;8.87;6.37;;;22.50;71.10;;;;;;5038152;28;20434;-70
2022/10/31 12:09:36;;;;;;;9.30;7.07;;;22.70;70.40;;;;;;5038241;28;20434;-70
2022/10/31 12:12:23;;;;;;;8.60;6.13;;;22.90;69.80;;;;;;5038546;28;20470;-70
2022/10/31 12:15:00;;;;;;;14.17;6.40;;;23.20;69.30;;;;;;5038359;28;20471;-70
2022/10/31 12:17:32;;;;;;;11.03;6.00;;;23.50;68.50;;;;;;5037893;28;20419;-71
2022/10/31 12:20:08;;;;;;;10.70;5.67;;;23.70;66.30;;;;;;5038142;28;20484;-70
2022/10/31 12:22:43;;;;;;;15.83;5.90;;;23.80;65.00;;;;;;5037652;28;20464;-71
2022/10/31 12:25:27;;;;;;;10.63;5.73;;;23.90;64.30;;;;;;5040263;28;20420;-70
2022/10/31 12:28:28;;;;;;;7.30;5.77;;;24.10;63.80;;;;;;5038434;28;20438;-71
2022/10/31 12:31:06;;;;;;;10.30;5.17;;;24.30;62.70;;;;;;5038876;28;20462;-71
2022/10/31 12:33:46;;;;;;;8.23;5.23;;;24.60;61.60;;;;;;5038523;28;20491;-71
2022/10/31 12:36:38;;;;;;;6.03;5.33;;;24.80;60.90;;;;;;5038707;28;20508;-71
2022/10/31 12:39:26;;;;;;;10.20;4.93;;;24.90;59.40;;;;;;5038044;28;20434;-71
2022/10/31 12:41:59;;;;;;;9.63;5.27;;;24.90;58.60;;;;;;5037450;28;20467;-70
2022/10/31 12:44:41;;;;;;;9.27;5.03;;;25.00;58.10;;;;;;5037293;28;20408;-70
2022/10/31 12:47:31;;;;;;;14.73;5.90;;;25.00;57.90;;;;;;5037997;28;20428;-71
2022/10/31 12:50:09;;;;;;;7.17;4.40;;;24.90;57.50;;;;;;5037761;28;20909;-71
2022/10/31 12:52:57;;;;;;;9.83;5.13;;;24.70;57.70;;;;;;5038303;28;20482;-71
2022/10/31 12:55:38;;;;;;;8.20;5.33;;;24.40;57.80;;;;;;5037000;28;20471;-70
2022/10/31 12:58:11;;;;;;;8.30;5.30;;;24.10;58.40;;;;;;5037659;28;20432;-70